sensor_id;sensor_type;location;lat;lon;timestamp;pressure;altitude;pressure_sealevel;temperature;humidity
27805;BME280;15183;51.350;11.102;2022-10-18T00:02:13;100932.56;;;22.89;51.34
27805;BME280;15183;51.350;11.102;2022-10-18T00:04:39;100932.84;;;22.87;51.31
27805;BME280;15183;51.350;11.102;2022-10-18T00:07:06;100938.31;;;22.82;51.44
27805;BME280;15183;51.350;11.102;2022-10-18T00:09:32;100939.69;;;22.74;51.57
27805;BME280;15183;51.350;11.102;2022-10-18T00:11:59;100926.88;;;22.55;51.78
27805;BME280;15183;51.350;11.102;2022-10-18T00:14:28;100945.97;;;22.64;52.02
27805;BME280;15183;51.350;11.102;2022-10-18T00:16:54;100946.00;;;22.59;52.32
27805;BME280;15183;51.350;11.102;2022-10-18T00:19:21;100940.06;;;22.57;51.54
27805;BME280;15183;51.350;11.102;2022-10-18T00:21:49;100943.88;;;22.56;52.12
27805;BME280;15183;51.350;11.102;2022-10-18T00:24:16;100941.69;;;22.58;52.18
27805;BME280;15183;51.350;11.102;2022-10-18T00:26:42;100938.47;;;22.56;52.04
27805;BME280;15183;51.350;11.102;2022-10-18T00:29:13;100957.34;;;22.61;52.20
27805;BME280;15183;51.350;11.102;2022-10-18T00:31:40;100962.69;;;22.66;52.14
27805;BME280;15183;51.350;11.102;2022-10-18T00:34:13;100975.13;;;22.67;52.21
27805;BME280;15183;51.350;11.102;2022-10-18T00:36:41;100964.88;;;22.64;52.33
27805;BME280;15183;51.350;11.102;2022-10-18T00:39:18;100965.97;;;22.63;52.01
27805;BME280;15183;51.350;11.102;2022-10-18T00:41:46;100963.25;;;22.63;51.79
27805;BME280;15183;51.350;11.102;2022-10-18T00:46:45;100963.25;;;22.63;52.01
27805;BME280;15183;51.350;11.102;2022-10-18T00:49:33;100956.78;;;22.64;52.33
27805;BME280;15183;51.350;11.102;2022-10-18T00:52:17;100956.78;;;22.64;51.68
27805;BME280;15183;51.350;11.102;2022-10-18T00:54:46;100954.03;;;22.69;51.50
27805;BME280;15183;51.350;11.102;2022-10-18T00:57:14;100944.84;;;22.70;52.11
27805;BME280;15183;51.350;11.102;2022-10-18T00:59:42;100941.06;;;22.72;51.94
27805;BME280;15183;51.350;11.102;2022-10-18T01:02:09;100949.72;;;22.74;52.27
27805;BME280;15183;51.350;11.102;2022-10-18T01:04:36;100939.97;;;22.73;52.00
27805;BME280;15183;51.350;11.102;2022-10-18T01:10:54;100940.81;;;22.68;52.38
27805;BME280;15183;51.350;11.102;2022-10-18T01:14:01;100941.66;;;22.63;51.98
27805;BME280;15183;51.350;11.102;2022-10-18T01:17:07;100942.75;;;22.62;52.08
27805;BME280;15183;51.350;11.102;2022-10-18T01:32:26;100943.63;;;22.47;53.10
27805;BME280;15183;51.350;11.102;2022-10-18T01:35:04;100930.66;;;22.49;53.10
27805;BME280;15183;51.350;11.102;2022-10-18T01:37:34;100936.59;;;22.51;53.54
27805;BME280;15183;51.350;11.102;2022-10-18T01:40:04;100939.59;;;22.50;53.11
27805;BME280;15183;51.350;11.102;2022-10-18T01:42:34;100923.63;;;22.43;53.62
27805;BME280;15183;51.350;11.102;2022-10-18T01:45:01;100910.47;;;22.31;53.47
27805;BME280;15183;51.350;11.102;2022-10-18T01:47:30;100939.06;;;22.43;53.57
27805;BME280;15183;51.350;11.102;2022-10-18T01:50:01;100945.53;;;22.41;54.00
27805;BME280;15183;51.350;11.102;2022-10-18T01:52:28;100951.19;;;22.40;54.07
27805;BME280;15183;51.350;11.102;2022-10-18T01:54:57;100942.88;;;22.31;54.28
27805;BME280;15183;51.350;11.102;2022-10-18T01:57:36;100939.94;;;22.27;54.22
27805;BME280;15183;51.350;11.102;2022-10-18T02:00:18;100942.38;;;22.24;54.66
27805;BME280;15183;51.350;11.102;2022-10-18T02:11:02;100920.94;;;21.82;55.72
27805;BME280;15183;51.350;11.102;2022-10-18T02:16:30;100936.03;;;21.89;56.03
27805;BME280;15183;51.350;11.102;2022-10-18T02:19:37;100943.88;;;21.80;55.57
27805;BME280;15183;51.350;11.102;2022-10-18T02:22:08;100947.38;;;21.80;55.68
27805;BME280;15183;51.350;11.102;2022-10-18T02:24:52;100947.94;;;21.77;55.70
27805;BME280;15183;51.350;11.102;2022-10-18T02:27:21;100943.06;;;21.79;56.07
27805;BME280;15183;51.350;11.102;2022-10-18T02:29:48;100951.44;;;21.83;56.18
27805;BME280;15183;51.350;11.102;2022-10-18T02:32:26;100960.31;;;21.89;55.93
27805;BME280;15183;51.350;11.102;2022-10-18T02:35:18;100966.78;;;21.88;55.90
27805;BME280;15183;51.350;11.102;2022-10-18T02:37:48;100956.53;;;21.85;56.32
27805;BME280;15183;51.350;11.102;2022-10-18T02:40:16;100965.69;;;21.89;56.42
27805;BME280;15183;51.350;11.102;2022-10-18T02:42:54;100964.63;;;21.85;56.90
27805;BME280;15183;51.350;11.102;2022-10-18T02:45:21;100950.38;;;21.68;57.23
27805;BME280;15183;51.350;11.102;2022-10-18T02:47:48;100950.91;;;21.50;57.56
27805;BME280;15183;51.350;11.102;2022-10-18T02:50:14;100963.59;;;21.49;57.52
27805;BME280;15183;51.350;11.102;2022-10-18T02:52:41;100965.47;;;21.33;58.34
27805;BME280;15183;51.350;11.102;2022-10-18T02:55:08;100962.78;;;21.23;58.86
27805;BME280;15183;51.350;11.102;2022-10-18T02:57:35;100954.44;;;21.09;58.93
27805;BME280;15183;51.350;11.102;2022-10-18T03:00:04;100960.34;;;21.06;58.87
27805;BME280;15183;51.350;11.102;2022-10-18T03:02:31;100954.69;;;20.97;59.73
27805;BME280;15183;51.350;11.102;2022-10-18T03:04:58;100965.19;;;20.93;59.21
27805;BME280;15183;51.350;11.102;2022-10-18T03:07:24;100967.34;;;20.91;59.30
27805;BME280;15183;51.350;11.102;2022-10-18T03:09:51;100967.34;;;20.91;59.79
27805;BME280;15183;51.350;11.102;2022-10-18T03:12:17;100953.88;;;20.86;59.64
27805;BME280;15183;51.350;11.102;2022-10-18T03:14:44;100956.03;;;20.94;59.92
27805;BME280;15183;51.350;11.102;2022-10-18T03:17:10;100945.25;;;20.89;60.01
27805;BME280;15183;51.350;11.102;2022-10-18T03:19:37;100955.50;;;20.92;59.79
27805;BME280;15183;51.350;11.102;2022-10-18T03:22:04;100960.34;;;20.90;60.71
27805;BME280;15183;51.350;11.102;2022-10-18T03:24:31;100960.34;;;20.90;60.45
27805;BME280;15183;51.350;11.102;2022-10-18T03:26:57;100962.75;;;20.92;60.67
27805;BME280;15183;51.350;11.102;2022-10-18T03:29:24;100954.41;;;20.88;60.51
27805;BME280;15183;51.350;11.102;2022-10-18T03:31:50;100954.97;;;20.90;60.58
27805;BME280;15183;51.350;11.102;2022-10-18T03:34:17;100963.59;;;20.92;60.68
27805;BME280;15183;51.350;11.102;2022-10-18T03:36:43;100950.66;;;20.84;61.22
27805;BME280;15183;51.350;11.102;2022-10-18T03:39:10;100966.28;;;20.87;61.62
27805;BME280;15183;51.350;11.102;2022-10-18T03:41:37;100951.66;;;20.78;61.78
27805;BME280;15183;51.350;11.102;2022-10-18T03:44:04;100955.44;;;20.77;62.38
27805;BME280;15183;51.350;11.102;2022-10-18T03:46:30;100956.50;;;20.71;63.18
27805;BME280;15183;51.350;11.102;2022-10-18T03:48:57;100952.44;;;20.63;64.07
27805;BME280;15183;51.350;11.102;2022-10-18T03:51:23;100957.56;;;20.59;64.65
27805;BME280;15183;51.350;11.102;2022-10-18T03:53:50;100957.28;;;20.61;65.50
27805;BME280;15183;51.350;11.102;2022-10-18T03:56:16;100957.81;;;20.58;66.19
27805;BME280;15183;51.350;11.102;2022-10-18T03:58:42;100940.84;;;20.57;66.20
27805;BME280;15183;51.350;11.102;2022-10-18T04:01:09;100934.63;;;20.51;66.87
27805;BME280;15183;51.350;11.102;2022-10-18T04:03:35;100951.34;;;20.59;66.93
27805;BME280;15183;51.350;11.102;2022-10-18T04:06:02;100942.47;;;20.58;67.14
27805;BME280;15183;51.350;11.102;2022-10-18T04:08:29;100940.56;;;20.59;67.26
27805;BME280;15183;51.350;11.102;2022-10-18T04:10:56;100942.47;;;20.58;67.30
27805;BME280;15183;51.350;11.102;2022-10-18T04:13:23;100929.00;;;20.53;67.70
27805;BME280;15183;51.350;11.102;2022-10-18T04:15:49;100926.56;;;20.46;67.50
27805;BME280;15183;51.350;11.102;2022-10-18T04:18:15;100936.00;;;20.49;67.86
27805;BME280;15183;51.350;11.102;2022-10-18T04:20:42;100945.41;;;20.46;68.23
27805;BME280;15183;51.350;11.102;2022-10-18T04:23:08;100944.31;;;20.42;68.25
27805;BME280;15183;51.350;11.102;2022-10-18T04:25:35;100942.69;;;20.41;68.41
27805;BME280;15183;51.350;11.102;2022-10-18T04:28:01;100939.19;;;20.41;68.54
27805;BME280;15183;51.350;11.102;2022-10-18T04:30:30;100948.06;;;20.41;68.94
27805;BME280;15183;51.350;11.102;2022-10-18T04:32:56;100947.78;;;20.37;68.52
27805;BME280;15183;51.350;11.102;2022-10-18T04:35:23;100930.53;;;20.33;69.02
27805;BME280;15183;51.350;11.102;2022-10-18T04:37:51;100946.16;;;20.36;69.08
27805;BME280;15183;51.350;11.102;2022-10-18T04:40:17;100940.75;;;20.26;68.64
27805;BME280;15183;51.350;11.102;2022-10-18T04:42:45;100943.97;;;20.23;68.81
27805;BME280;15183;51.350;11.102;2022-10-18T04:45:12;100944.72;;;20.13;69.18
27805;BME280;15183;51.350;11.102;2022-10-18T04:47:38;100925.84;;;20.03;69.36
27805;BME280;15183;51.350;11.102;2022-10-18T04:50:05;100932.00;;;19.98;69.69
27805;BME280;15183;51.350;11.102;2022-10-18T04:52:32;100923.88;;;19.88;70.47
27805;BME280;15183;51.350;11.102;2022-10-18T04:54:58;100922.22;;;19.81;70.64
27805;BME280;15183;51.350;11.102;2022-10-18T04:57:25;100918.13;;;19.69;70.75
27805;BME280;15183;51.350;11.102;2022-10-18T04:59:51;100915.13;;;19.65;71.13
27805;BME280;15183;51.350;11.102;2022-10-18T05:02:18;100929.63;;;19.64;71.06
27805;BME280;15183;51.350;11.102;2022-10-18T05:04:44;100932.31;;;19.59;71.27
27805;BME280;15183;51.350;11.102;2022-10-18T05:07:11;100929.34;;;19.55;72.03
27805;BME280;15183;51.350;11.102;2022-10-18T05:09:38;100938.72;;;19.52;72.37
27805;BME280;15183;51.350;11.102;2022-10-18T05:12:04;100942.72;;;19.50;72.45
27805;BME280;15183;51.350;11.102;2022-10-18T05:14:31;100951.56;;;19.45;72.53
27805;BME280;15183;51.350;11.102;2022-10-18T05:16:58;100926.75;;;19.33;72.41
27805;BME280;15183;51.350;11.102;2022-10-18T05:19:24;100958.22;;;19.37;73.02
27805;BME280;15183;51.350;11.102;2022-10-18T05:21:51;100942.06;;;19.32;73.07
27805;BME280;15183;51.350;11.102;2022-10-18T05:24:17;100938.81;;;19.30;73.09
27805;BME280;15183;51.350;11.102;2022-10-18T05:26:44;100947.13;;;19.29;73.46
27805;BME280;15183;51.350;11.102;2022-10-18T05:29:11;100922.88;;;19.18;73.41
27805;BME280;15183;51.350;11.102;2022-10-18T05:31:37;100936.38;;;19.29;73.52
27805;BME280;15183;51.350;11.102;2022-10-18T05:34:04;100924.84;;;19.28;73.93
27805;BME280;15183;51.350;11.102;2022-10-18T05:36:30;100914.03;;;19.18;74.01
27805;BME280;15183;51.350;11.102;2022-10-18T05:38:57;100921.84;;;19.24;73.92
27805;BME280;15183;51.350;11.102;2022-10-18T05:41:23;100927.19;;;19.19;74.04
27805;BME280;15183;51.350;11.102;2022-10-18T05:43:50;100917.41;;;19.08;74.28
27805;BME280;15183;51.350;11.102;2022-10-18T05:46:16;100923.66;;;19.14;74.38
27805;BME280;15183;51.350;11.102;2022-10-18T05:48:43;100929.78;;;19.09;74.22
27805;BME280;15183;51.350;11.102;2022-10-18T05:51:14;100902.41;;;18.85;74.05
27805;BME280;15183;51.350;11.102;2022-10-18T05:53:41;100941.63;;;19.13;74.10
27805;BME280;15183;51.350;11.102;2022-10-18T05:56:07;100937.28;;;19.07;74.60
27805;BME280;15183;51.350;11.102;2022-10-18T05:58:37;100946.16;;;19.07;74.67
27805;BME280;15183;51.350;11.102;2022-10-18T06:01:05;100942.06;;;19.00;74.97
27805;BME280;15183;51.350;11.102;2022-10-18T06:03:32;100955.06;;;19.13;74.63
27805;BME280;15183;51.350;11.102;2022-10-18T06:06:07;100948.88;;;19.13;74.53
27805;BME280;15183;51.350;11.102;2022-10-18T06:08:36;100942.38;;;19.08;75.15
27805;BME280;15183;51.350;11.102;2022-10-18T06:11:12;100940.50;;;19.04;74.57
27805;BME280;15183;51.350;11.102;2022-10-18T06:13:45;100953.97;;;19.09;74.72
27805;BME280;15183;51.350;11.102;2022-10-18T06:16:14;100903.94;;;18.75;75.18
27805;BME280;15183;51.350;11.102;2022-10-18T06:18:41;100896.59;;;18.65;75.00
27805;BME280;15183;51.350;11.102;2022-10-18T06:21:08;100919.28;;;18.80;74.91
27805;BME280;15183;51.350;11.102;2022-10-18T06:23:35;100904.16;;;18.69;75.22
27805;BME280;15183;51.350;11.102;2022-10-18T06:26:05;100887.88;;;18.53;75.19
27805;BME280;15183;51.350;11.102;2022-10-18T06:28:34;100952.16;;;18.92;75.26
27805;BME280;15183;51.350;11.102;2022-10-18T06:31:02;100935.09;;;18.76;75.05
27805;BME280;15183;51.350;11.102;2022-10-18T06:33:33;100970.16;;;18.92;74.33
27805;BME280;15183;51.350;11.102;2022-10-18T06:38:34;100942.34;;;18.76;75.33
27805;BME280;15183;51.350;11.102;2022-10-18T06:41:01;100962.06;;;18.87;74.81
27805;BME280;15183;51.350;11.102;2022-10-18T06:43:29;100930.13;;;18.63;74.83
27805;BME280;15183;51.350;11.102;2022-10-18T06:45:59;100967.88;;;18.78;75.57
27805;BME280;15183;51.350;11.102;2022-10-18T06:48:26;100932.88;;;18.46;75.65
27805;BME280;15183;51.350;11.102;2022-10-18T06:50:58;100990.44;;;18.77;75.56
27805;BME280;15183;51.350;11.102;2022-10-18T06:53:29;100991.78;;;18.80;75.86
27805;BME280;15183;51.350;11.102;2022-10-18T06:56:09;100981.22;;;18.73;75.60
27805;BME280;15183;51.350;11.102;2022-10-18T06:58:36;100985.63;;;18.79;76.18
27805;BME280;15183;51.350;11.102;2022-10-18T07:01:12;100985.28;;;18.76;76.07
27805;BME280;15183;51.350;11.102;2022-10-18T07:03:41;100978.84;;;18.77;75.98
27805;BME280;15183;51.350;11.102;2022-10-18T07:06:10;101001.56;;;18.91;76.08
27805;BME280;15183;51.350;11.102;2022-10-18T07:08:38;100996.25;;;18.97;76.08
27805;BME280;15183;51.350;11.102;2022-10-18T07:11:06;100996.59;;;19.00;76.48
27805;BME280;15183;51.350;11.102;2022-10-18T07:13:34;100955.75;;;18.76;76.35
27805;BME280;15183;51.350;11.102;2022-10-18T07:16:05;100994.78;;;19.06;76.34
27805;BME280;15183;51.350;11.102;2022-10-18T07:18:37;100986.91;;;18.99;76.13
27805;BME280;15183;51.350;11.102;2022-10-18T07:21:07;100956.13;;;18.85;76.69
27805;BME280;15183;51.350;11.102;2022-10-18T07:23:37;100969.41;;;18.97;76.60
27805;BME280;15183;51.350;11.102;2022-10-18T07:26:31;101000.03;;;19.23;76.54
27805;BME280;15183;51.350;11.102;2022-10-18T07:29:10;100993.59;;;19.24;77.05
27805;BME280;15183;51.350;11.102;2022-10-18T07:31:37;100986.44;;;19.35;77.09
27805;BME280;15183;51.350;11.102;2022-10-18T07:34:05;100974.88;;;19.34;77.28
27805;BME280;15183;51.350;11.102;2022-10-18T07:36:33;100967.31;;;19.31;77.09
27805;BME280;15183;51.350;11.102;2022-10-18T07:38:59;100975.22;;;19.43;76.82
27805;BME280;15183;51.350;11.102;2022-10-18T07:41:26;100960.06;;;19.32;76.63
27805;BME280;15183;51.350;11.102;2022-10-18T07:43:53;101003.03;;;19.59;77.08
27805;BME280;15183;51.350;11.102;2022-10-18T07:46:21;100957.88;;;19.29;76.86
27805;BME280;15183;51.350;11.102;2022-10-18T07:48:48;100999.78;;;19.57;76.59
27805;BME280;15183;51.350;11.102;2022-10-18T07:51:15;100973.03;;;19.40;76.83
27805;BME280;15183;51.350;11.102;2022-10-18T07:53:43;100997.06;;;19.52;76.98
27805;BME280;15183;51.350;11.102;2022-10-18T07:56:13;100933.63;;;19.18;77.23
27805;BME280;15183;51.350;11.102;2022-10-18T07:58:48;100950.03;;;19.22;77.10
27805;BME280;15183;51.350;11.102;2022-10-18T08:01:17;100984.69;;;19.51;77.36
27805;BME280;15183;51.350;11.102;2022-10-18T08:03:44;100947.44;;;19.32;77.67
27805;BME280;15183;51.350;11.102;2022-10-18T08:06:14;100941.34;;;19.42;77.65
27805;BME280;15183;51.350;11.102;2022-10-18T08:08:41;100984.81;;;19.72;77.71
27805;BME280;15183;51.350;11.102;2022-10-18T08:11:16;100978.69;;;19.81;77.27
27805;BME280;15183;51.350;11.102;2022-10-18T08:13:43;100978.22;;;19.90;77.69
27805;BME280;15183;51.350;11.102;2022-10-18T08:16:17;100978.81;;;19.97;77.63
27805;BME280;15183;51.350;11.102;2022-10-18T08:18:44;100982.34;;;20.03;77.80
27805;BME280;15183;51.350;11.102;2022-10-18T08:21:13;100957.28;;;19.97;78.18
27805;BME280;15183;51.350;11.102;2022-10-18T08:23:41;100910.84;;;19.69;77.27
27805;BME280;15183;51.350;11.102;2022-10-18T08:26:14;100946.81;;;19.95;77.55
27805;BME280;15183;51.350;11.102;2022-10-18T08:28:42;100977.03;;;20.18;78.04
27805;BME280;15183;51.350;11.102;2022-10-18T08:31:14;100983.25;;;20.24;78.16
27805;BME280;15183;51.350;11.102;2022-10-18T08:33:43;100964.13;;;20.20;78.37
27805;BME280;15183;51.350;11.102;2022-10-18T08:36:13;100959.28;;;20.22;77.86
27805;BME280;15183;51.350;11.102;2022-10-18T08:38:41;100989.25;;;20.42;78.29
27805;BME280;15183;51.350;11.102;2022-10-18T08:44:22;100981.75;;;20.49;78.19
27805;BME280;15183;51.350;11.102;2022-10-18T08:46:54;100989.31;;;20.52;78.04
27805;BME280;15183;51.350;11.102;2022-10-18T08:51:56;100978.56;;;20.57;78.02
27805;BME280;15183;51.350;11.102;2022-10-18T08:57:04;100991.78;;;20.74;77.61
27805;BME280;15183;51.350;11.102;2022-10-18T08:59:38;100986.44;;;20.79;77.46
27805;BME280;15183;51.350;11.102;2022-10-18T09:02:35;100976.22;;;20.87;77.25
27805;BME280;15183;51.350;11.102;2022-10-18T09:05:33;100987.53;;;20.94;77.34
27805;BME280;15183;51.350;11.102;2022-10-18T09:08:46;100985.16;;;21.03;77.35
27805;BME280;15183;51.350;11.102;2022-10-18T09:19:34;100988.66;;;21.19;76.65
27805;BME280;15183;51.350;11.102;2022-10-18T09:22:15;100988.38;;;21.20;76.75
27805;BME280;15183;51.350;11.102;2022-10-18T09:25:14;100990.03;;;21.27;76.98
27805;BME280;15183;51.350;11.102;2022-10-18T09:28:03;100921.81;;;20.85;76.60
27805;BME280;15183;51.350;11.102;2022-10-18T09:31:02;100987.03;;;21.23;76.31
27805;BME280;15183;51.350;11.102;2022-10-18T09:36:38;100987.84;;;21.03;76.36
27805;BME280;15183;51.350;11.102;2022-10-18T09:39:14;101009.09;;;20.99;76.27
27805;BME280;15183;51.350;11.102;2022-10-18T09:44:57;101015.84;;;20.91;77.21
27805;BME280;15183;51.350;11.102;2022-10-18T09:47:44;101000.97;;;20.78;77.34
27805;BME280;15183;51.350;11.102;2022-10-18T09:50:26;101012.31;;;20.86;77.52
27805;BME280;15183;51.350;11.102;2022-10-18T09:56:05;101016.91;;;20.85;77.91
27805;BME280;15183;51.350;11.102;2022-10-18T09:58:47;101015.00;;;20.86;78.10
27805;BME280;15183;51.350;11.102;2022-10-18T10:01:33;100988.25;;;20.58;77.58
27805;BME280;15183;51.350;11.102;2022-10-18T10:04:00;101004.72;;;20.77;78.34
27805;BME280;15183;51.350;11.102;2022-10-18T10:06:29;101013.38;;;20.79;78.47
27805;BME280;15183;51.350;11.102;2022-10-18T10:09:03;101024.19;;;20.90;78.33
27805;BME280;15183;51.350;11.102;2022-10-18T10:11:42;101021.78;;;20.93;78.41
27805;BME280;15183;51.350;11.102;2022-10-18T10:17:00;101034.19;;;21.00;78.10
27805;BME280;15183;51.350;11.102;2022-10-18T10:19:59;101031.75;;;20.98;78.38
27805;BME280;15183;51.350;11.102;2022-10-18T10:22:38;101033.09;;;20.95;78.29
27805;BME280;15183;51.350;11.102;2022-10-18T10:25:08;101008.00;;;20.79;78.71
27805;BME280;15183;51.350;11.102;2022-10-18T10:27:45;101041.16;;;20.90;77.89
27805;BME280;15183;51.350;11.102;2022-10-18T10:30:43;101050.03;;;20.80;77.00
27805;BME280;15183;51.350;11.102;2022-10-18T10:33:34;101048.88;;;20.66;77.14
27805;BME280;15183;51.350;11.102;2022-10-18T10:36:08;101055.56;;;20.58;77.56
27805;BME280;15183;51.350;11.102;2022-10-18T10:38:41;101050.41;;;20.51;77.72
27805;BME280;15183;51.350;11.102;2022-10-18T10:41:21;101036.06;;;20.35;78.10
27805;BME280;15183;51.350;11.102;2022-10-18T10:43:54;101024.13;;;20.16;77.90
27805;BME280;15183;51.350;11.102;2022-10-18T10:46:21;101049.28;;;20.37;78.08
27805;BME280;15183;51.350;11.102;2022-10-18T10:48:57;101053.81;;;20.31;78.13
27805;BME280;15183;51.350;11.102;2022-10-18T10:51:33;101059.97;;;20.27;77.92
27805;BME280;15183;51.350;11.102;2022-10-18T10:59:55;101049.34;;;20.04;78.75
27805;BME280;15183;51.350;11.102;2022-10-18T11:02:32;101030.38;;;19.89;78.49
27805;BME280;15183;51.350;11.102;2022-10-18T11:05:22;101054.72;;;20.04;79.11
27805;BME280;15183;51.350;11.102;2022-10-18T11:07:54;101046.66;;;20.04;79.52
27805;BME280;15183;51.350;11.102;2022-10-18T11:10:29;100987.78;;;19.70;79.51
27805;BME280;15183;51.350;11.102;2022-10-18T11:13:27;101048.25;;;20.00;79.37
27805;BME280;15183;51.350;11.102;2022-10-18T11:16:18;101042.63;;;20.02;79.00
27805;BME280;15183;51.350;11.102;2022-10-18T11:18:48;101019.06;;;19.87;79.40
27805;BME280;15183;51.350;11.102;2022-10-18T11:21:21;101012.88;;;19.86;79.64
27805;BME280;15183;51.350;11.102;2022-10-18T11:23:49;101034.81;;;20.05;79.81
27805;BME280;15183;51.350;11.102;2022-10-18T11:43:32;101044.72;;;21.06;80.36
27805;BME280;15183;51.350;11.102;2022-10-18T12:01:04;101026.97;;;21.78;80.13
27805;BME280;15183;51.350;11.102;2022-10-18T12:04:32;101045.03;;;22.03;79.24
27805;BME280;15183;51.350;11.102;2022-10-18T12:06:38;101033.66;;;22.11;79.33
27805;BME280;15183;51.350;11.102;2022-10-18T12:09:31;101026.91;;;22.19;78.81
27805;BME280;15183;51.350;11.102;2022-10-18T12:14:39;101029.00;;;22.33;78.41
27805;BME280;15183;51.350;11.102;2022-10-18T12:17:41;100991.03;;;22.08;77.76
27805;BME280;15183;51.350;11.102;2022-10-18T12:20:56;100981.88;;;21.99;77.69
27805;BME280;15183;51.350;11.102;2022-10-18T12:23:48;100985.88;;;22.07;77.79
27805;BME280;15183;51.350;11.102;2022-10-18T12:26:16;101009.81;;;22.34;77.60
27805;BME280;15183;51.350;11.102;2022-10-18T12:31:47;100972.69;;;22.00;77.39
27805;BME280;15183;51.350;11.102;2022-10-18T12:34:39;101029.81;;;22.33;76.73
27805;BME280;15183;51.350;11.102;2022-10-18T12:37:43;101001.25;;;22.17;77.12
27805;BME280;15183;51.350;11.102;2022-10-18T12:40:22;101013.06;;;22.31;77.51
27805;BME280;15183;51.350;11.102;2022-10-18T12:42:51;101009.28;;;22.32;77.34
27805;BME280;15183;51.350;11.102;2022-10-18T12:45:27;101010.66;;;22.30;77.40
27805;BME280;15183;51.350;11.102;2022-10-18T12:48:01;101017.94;;;22.29;77.07
27805;BME280;15183;51.350;11.102;2022-10-18T12:50:35;101030.94;;;22.22;76.86
27805;BME280;15183;51.350;11.102;2022-10-18T12:55:41;101022.81;;;22.22;77.18
27805;BME280;15183;51.350;11.102;2022-10-18T13:03:32;101022.66;;;22.68;77.16
27805;BME280;15183;51.350;11.102;2022-10-18T13:06:02;101018.31;;;22.78;77.08
27805;BME280;15183;51.350;11.102;2022-10-18T13:08:38;101025.28;;;22.89;76.85
27805;BME280;15183;51.350;11.102;2022-10-18T13:20:39;101026.34;;;22.88;76.47
27805;BME280;15183;51.350;11.102;2022-10-18T13:23:30;101024.97;;;22.91;77.02
27805;BME280;15183;51.350;11.102;2022-10-18T13:32:04;101027.16;;;22.94;76.45
27805;BME280;15183;51.350;11.102;2022-10-18T13:34:39;100990.78;;;22.70;76.37
27805;BME280;15183;51.350;11.102;2022-10-18T13:39:37;101018.47;;;22.92;76.37
27805;BME280;15183;51.350;11.102;2022-10-18T13:44:42;101000.72;;;22.80;75.96
27805;BME280;15183;51.350;11.102;2022-10-18T13:47:31;100990.47;;;22.77;76.33
27805;BME280;15183;51.350;11.102;2022-10-18T13:50:29;101012.31;;;22.86;76.21
27805;BME280;15183;51.350;11.102;2022-10-18T13:53:08;101021.00;;;22.83;76.16
27805;BME280;15183;51.350;11.102;2022-10-18T13:59:25;101028.66;;;22.60;75.85
27805;BME280;15183;51.350;11.102;2022-10-18T14:07:45;100972.44;;;21.91;76.25
27805;BME280;15183;51.350;11.102;2022-10-18T14:10:25;101044.16;;;22.23;76.94
27805;BME280;15183;51.350;11.102;2022-10-18T14:12:57;101001.84;;;22.03;76.64
27805;BME280;15183;51.350;11.102;2022-10-18T14:15:35;101011.25;;;22.11;77.16
27805;BME280;15183;51.350;11.102;2022-10-18T14:18:30;101027.16;;;22.23;77.35
27805;BME280;15183;51.350;11.102;2022-10-18T14:21:15;101023.38;;;22.19;76.97
27805;BME280;15183;51.350;11.102;2022-10-18T14:23:44;100986.47;;;21.93;77.37
27805;BME280;15183;51.350;11.102;2022-10-18T14:26:17;101034.44;;;22.27;77.35
27805;BME280;15183;51.350;11.102;2022-10-18T14:29:06;101004.53;;;22.08;77.33
27805;BME280;15183;51.350;11.102;2022-10-18T14:31:42;101001.03;;;22.03;77.19
27805;BME280;15183;51.350;11.102;2022-10-18T14:34:16;101026.91;;;22.19;77.18
27805;BME280;15183;51.350;11.102;2022-10-18T14:36:46;101044.41;;;22.27;76.76
27805;BME280;15183;51.350;11.102;2022-10-18T14:39:26;101044.44;;;22.22;77.08
27805;BME280;15183;51.350;11.102;2022-10-18T14:41:57;101020.72;;;22.08;77.19
27805;BME280;15183;51.350;11.102;2022-10-18T14:44:30;101044.97;;;22.19;77.21
27805;BME280;15183;51.350;11.102;2022-10-18T14:47:08;101042.28;;;22.19;77.23
27805;BME280;15183;51.350;11.102;2022-10-18T14:49:43;101036.59;;;22.15;77.33
27805;BME280;15183;51.350;11.102;2022-10-18T14:52:25;100945.00;;;21.43;76.57
27805;BME280;15183;51.350;11.102;2022-10-18T14:54:57;101032.06;;;21.95;77.12
27805;BME280;15183;51.350;11.102;2022-10-18T14:57:35;100953.09;;;21.27;77.27
27805;BME280;15183;51.350;11.102;2022-10-18T15:00:13;100992.72;;;21.42;76.99
27805;BME280;15183;51.350;11.102;2022-10-18T15:02:43;101002.94;;;21.50;77.12
27805;BME280;15183;51.350;11.102;2022-10-18T15:05:22;101045.06;;;21.67;77.05
27805;BME280;15183;51.350;11.102;2022-10-18T15:07:50;100999.44;;;21.34;77.34
27805;BME280;15183;51.350;11.102;2022-10-18T15:10:24;101036.66;;;21.53;77.46
27805;BME280;15183;51.350;11.102;2022-10-18T15:12:53;101048.53;;;21.52;77.64
27805;BME280;15183;51.350;11.102;2022-10-18T15:15:29;101053.66;;;21.48;77.47
27805;BME280;15183;51.350;11.102;2022-10-18T15:17:57;100992.44;;;21.07;77.53
27805;BME280;15183;51.350;11.102;2022-10-18T15:20:31;101028.81;;;21.20;77.26
27805;BME280;15183;51.350;11.102;2022-10-18T15:23:27;101047.72;;;21.36;77.89
27805;BME280;15183;51.350;11.102;2022-10-18T15:26:08;101035.03;;;21.26;77.95
27805;BME280;15183;51.350;11.102;2022-10-18T15:28:41;101022.88;;;21.08;77.59
27805;BME280;15183;51.350;11.102;2022-10-18T15:31:28;101037.47;;;21.22;77.72
27805;BME280;15183;51.350;11.102;2022-10-18T15:34:33;101036.91;;;21.15;77.68